createdAt,value
2023-02-05T00:00:45.862Z,9.06
2023-02-05T00:03:12.412Z,9.06
2023-02-05T00:05:38.805Z,9.07
2023-02-05T00:08:05.459Z,9.07
2023-02-05T00:10:31.880Z,9.08
2023-02-05T00:12:58.347Z,9.07
2023-02-05T00:15:24.762Z,9.05
2023-02-05T00:17:51.143Z,9.06
2023-02-05T00:20:17.784Z,9.06
2023-02-05T00:22:44.163Z,9.05
2023-02-05T00:25:10.659Z,9.04
2023-02-05T00:27:37.054Z,9.04
2023-02-05T00:30:03.611Z,9.02
2023-02-05T00:32:30.178Z,9.03
2023-02-05T00:34:56.600Z,9.02
2023-02-05T00:37:22.991Z,9.02
2023-02-05T00:39:49.431Z,9.00
2023-02-05T00:42:15.912Z,9.00
2023-02-05T00:44:42.325Z,8.99
2023-02-05T00:47:08.702Z,8.96
2023-02-05T00:49:35.139Z,8.96
2023-02-05T00:52:01.581Z,8.91
2023-02-05T00:54:29.872Z,8.90
2023-02-05T00:56:56.271Z,8.89
2023-02-05T00:59:24.024Z,8.89
2023-02-05T01:01:50.893Z,8.87
2023-02-05T01:04:20.122Z,8.88
2023-02-05T01:06:47.466Z,8.88
2023-02-05T01:09:14.098Z,8.87
2023-02-05T01:11:40.532Z,8.84
2023-02-05T01:14:06.974Z,8.84
2023-02-05T01:16:33.652Z,8.80
2023-02-05T01:19:00.189Z,8.81
2023-02-05T01:21:26.935Z,8.79
2023-02-05T01:23:54.747Z,8.79
2023-02-05T01:26:21.246Z,8.77
2023-02-05T01:28:48.444Z,8.76
2023-02-05T01:31:15.065Z,8.75
2023-02-05T01:33:41.556Z,8.75
2023-02-05T01:36:08.283Z,8.75
2023-02-05T01:38:34.687Z,8.79
2023-02-05T01:41:01.052Z,8.73
2023-02-05T01:43:27.542Z,8.69
2023-02-05T01:46:29.605Z,8.70
2023-02-05T01:48:58.913Z,8.72
2023-02-05T01:51:28.802Z,8.74
2023-02-05T01:53:55.565Z,8.74
2023-02-05T01:56:29.691Z,8.72
2023-02-05T01:59:21.506Z,8.67
2023-02-05T02:01:48.238Z,8.68
2023-02-05T02:04:27.040Z,8.73
2023-02-05T02:06:53.616Z,8.76
2023-02-05T02:09:20.037Z,8.77
2023-02-05T02:11:46.714Z,8.77
2023-02-05T02:14:14.421Z,8.77
2023-02-05T02:16:41.278Z,8.78
2023-02-05T02:19:18.860Z,8.73
2023-02-05T02:22:03.824Z,8.71
2023-02-05T02:24:48.669Z,8.69
2023-02-05T02:27:33.529Z,8.66
2023-02-05T02:30:20.335Z,8.63
2023-02-05T02:32:56.157Z,8.58
2023-02-05T02:35:31.763Z,8.61
2023-02-05T02:38:17.468Z,8.62
2023-02-05T02:40:50.621Z,8.62
2023-02-05T02:43:26.418Z,8.57
2023-02-05T02:46:01.007Z,8.60
2023-02-05T02:48:30.049Z,8.56
2023-02-05T02:50:59.858Z,8.54
2023-02-05T02:53:30.128Z,8.55
2023-02-05T02:55:58.584Z,8.55
2023-02-05T02:58:48.631Z,8.55
2023-02-05T03:01:22.270Z,8.55
2023-02-05T03:03:58.675Z,8.58
2023-02-05T03:06:27.686Z,8.58
2023-02-05T03:09:10.748Z,8.61
2023-02-05T03:11:37.612Z,8.63
2023-02-05T03:14:04.576Z,8.63
2023-02-05T03:16:35.652Z,8.63
2023-02-05T03:19:03.460Z,8.62
2023-02-05T03:21:43.324Z,8.56
2023-02-05T03:24:10.503Z,8.53
2023-02-05T03:26:38.258Z,8.51
2023-02-05T03:29:17.458Z,8.50
2023-02-05T03:32:09.807Z,8.49
2023-02-05T03:34:58.100Z,8.47
2023-02-05T03:37:42.335Z,8.45
2023-02-05T03:40:18.381Z,8.45
2023-02-05T03:43:05.058Z,8.44
2023-02-05T03:45:59.753Z,8.42
2023-02-05T03:48:54.123Z,8.37
2023-02-05T03:51:28.944Z,8.30
2023-02-05T03:54:04.113Z,8.29
2023-02-05T03:56:47.268Z,8.29
2023-02-05T03:59:16.929Z,8.23
2023-02-05T04:01:45.210Z,8.23
2023-02-05T04:04:13.763Z,8.23
2023-02-05T04:06:40.668Z,8.26
2023-02-05T04:09:07.540Z,8.28
2023-02-05T04:11:34.574Z,8.30
2023-02-05T04:14:03.610Z,8.29
2023-02-05T04:16:30.096Z,8.26
2023-02-05T04:18:58.241Z,8.26
2023-02-05T04:21:26.384Z,8.24
2023-02-05T04:23:53.330Z,8.20
2023-02-05T04:26:20.279Z,8.20
2023-02-05T04:28:57.233Z,8.18
2023-02-05T04:31:24.306Z,8.13
2023-02-05T04:33:51.247Z,8.05
2023-02-05T04:36:18.983Z,8.00
2023-02-05T04:38:45.359Z,7.88
2023-02-05T04:41:13.180Z,7.78
2023-02-05T04:43:39.601Z,7.74
2023-02-05T04:46:10.437Z,7.73
2023-02-05T04:48:38.132Z,7.71
2023-02-05T04:51:09.374Z,7.61
2023-02-05T04:53:35.879Z,7.57
2023-02-05T04:56:14.538Z,7.54
2023-02-05T04:58:41.266Z,7.51
2023-02-05T05:01:22.441Z,7.50
2023-02-05T05:03:50.076Z,7.44
2023-02-05T05:06:18.268Z,7.38
2023-02-05T05:08:44.969Z,7.28
2023-02-05T05:11:15.176Z,7.23
2023-02-05T05:13:41.647Z,7.13
2023-02-05T05:16:10.652Z,7.07
2023-02-05T05:18:38.252Z,7.03
2023-02-05T05:21:05.774Z,6.92
2023-02-05T05:23:33.753Z,6.94
2023-02-05T05:26:06.977Z,6.86
2023-02-05T05:28:34.789Z,6.82
2023-02-05T05:31:08.378Z,6.83
2023-02-05T05:33:34.863Z,6.84
2023-02-05T05:36:01.356Z,6.83
2023-02-05T05:38:27.763Z,6.80
2023-02-05T05:41:12.821Z,6.84
2023-02-05T05:43:48.283Z,6.86
2023-02-05T05:46:24.365Z,6.81
2023-02-05T05:48:52.719Z,6.71
2023-02-05T05:51:19.898Z,6.71
2023-02-05T05:53:46.752Z,6.71
2023-02-05T05:56:13.558Z,6.74
2023-02-05T05:58:40.056Z,6.76
2023-02-05T06:01:07.094Z,6.85
2023-02-05T06:03:33.903Z,6.93
2023-02-05T06:06:02.916Z,6.92
2023-02-05T06:08:29.773Z,6.91
2023-02-05T06:10:56.732Z,6.84
2023-02-05T06:13:23.210Z,6.92
2023-02-05T06:15:49.671Z,7.00
2023-02-05T06:18:17.264Z,7.02
2023-02-05T06:20:43.878Z,7.00
2023-02-05T06:23:10.531Z,6.99
2023-02-05T06:25:36.932Z,6.91
2023-02-05T06:28:03.668Z,6.87
2023-02-05T06:30:30.552Z,6.81
2023-02-05T06:32:56.954Z,6.81
2023-02-05T06:35:23.768Z,6.78
2023-02-05T06:37:50.189Z,6.80
2023-02-05T06:40:18.067Z,6.81
2023-02-05T06:42:45.302Z,6.81
2023-02-05T06:45:12.048Z,6.83
2023-02-05T06:47:38.799Z,6.86
2023-02-05T06:50:06.660Z,6.90
2023-02-05T06:52:33.158Z,6.98
2023-02-05T06:54:59.554Z,6.97
2023-02-05T06:57:26.018Z,6.93
2023-02-05T06:59:52.430Z,6.90
2023-02-05T07:02:18.890Z,6.82
2023-02-05T07:04:45.566Z,6.73
2023-02-05T07:07:11.969Z,6.69
2023-02-05T07:09:38.370Z,6.73
2023-02-05T07:12:05.128Z,6.72
2023-02-05T07:14:31.582Z,6.61
2023-02-05T07:16:57.978Z,6.64
2023-02-05T07:19:24.350Z,6.66
2023-02-05T07:21:50.800Z,6.69
2023-02-05T07:24:17.237Z,6.72
2023-02-05T07:26:45.196Z,6.73
2023-02-05T07:29:11.583Z,6.67
2023-02-05T07:31:38.044Z,6.64
2023-02-05T07:34:04.469Z,6.66
2023-02-05T07:36:30.944Z,6.70
2023-02-05T07:38:57.288Z,6.78
2023-02-05T07:41:23.715Z,6.83
2023-02-05T07:43:54.245Z,6.79
2023-02-05T07:46:22.016Z,6.75
2023-02-05T07:48:48.842Z,6.76
2023-02-05T07:51:18.174Z,6.82
2023-02-05T07:53:45.291Z,6.82
2023-02-05T07:56:12.405Z,6.78
2023-02-05T07:58:38.836Z,6.82
2023-02-05T08:01:06.181Z,6.82
2023-02-05T08:03:32.732Z,6.91
2023-02-05T08:05:59.567Z,6.98
2023-02-05T08:08:26.019Z,6.89
2023-02-05T08:10:57.651Z,6.99
2023-02-05T08:13:24.062Z,7.02
2023-02-05T08:15:50.546Z,7.07
2023-02-05T08:18:16.962Z,6.98
2023-02-05T08:20:44.231Z,6.98
2023-02-05T08:23:10.681Z,6.93
2023-02-05T08:25:39.242Z,7.04
2023-02-05T08:28:06.057Z,7.19
2023-02-05T08:30:32.471Z,7.18
2023-02-05T08:32:58.842Z,7.15
2023-02-05T08:35:25.315Z,7.26
2023-02-05T08:37:51.736Z,7.39
2023-02-05T08:40:18.335Z,7.41
2023-02-05T08:42:45.474Z,7.43
2023-02-05T08:45:11.961Z,7.41
2023-02-05T08:47:38.354Z,7.50
2023-02-05T08:50:05.550Z,7.57
2023-02-05T08:52:32.344Z,7.63
2023-02-05T08:54:59.117Z,7.66
2023-02-05T08:57:30.086Z,7.61
2023-02-05T08:59:57.038Z,7.61
2023-02-05T09:02:27.493Z,7.61
2023-02-05T09:05:07.661Z,7.54
2023-02-05T09:07:35.226Z,7.43
2023-02-05T09:10:01.708Z,7.39
2023-02-05T09:12:28.138Z,7.45
2023-02-05T09:14:54.631Z,7.43
2023-02-05T09:17:21.066Z,7.49
2023-02-05T09:19:47.486Z,7.50
2023-02-05T09:22:13.875Z,7.57
2023-02-05T09:24:40.378Z,7.61
2023-02-05T09:27:06.865Z,7.63
2023-02-05T09:29:33.371Z,7.56
2023-02-05T09:32:00.027Z,7.66
2023-02-05T09:34:26.578Z,7.59
2023-02-05T09:36:52.972Z,7.63
2023-02-05T09:39:47.028Z,7.63
2023-02-05T09:42:22.823Z,7.58
2023-02-05T09:45:00.622Z,7.60
2023-02-05T09:47:53.179Z,7.63
2023-02-05T09:50:29.298Z,7.61
2023-02-05T09:53:05.927Z,7.67
2023-02-05T09:55:44.856Z,7.64
2023-02-05T09:58:21.952Z,7.57
2023-02-05T10:01:16.111Z,7.65
2023-02-05T10:03:45.164Z,7.72
2023-02-05T10:06:46.626Z,7.77
2023-02-05T10:09:25.698Z,7.79
2023-02-05T10:12:14.704Z,7.85
2023-02-05T10:15:02.331Z,7.98
2023-02-05T10:17:54.753Z,8.07
2023-02-05T10:20:33.158Z,8.16
2023-02-05T10:23:15.541Z,8.07
2023-02-05T10:25:54.074Z,7.96
2023-02-05T10:28:59.197Z,7.80
2023-02-05T10:31:50.227Z,7.89
2023-02-05T10:34:54.121Z,7.99
2023-02-05T10:37:33.756Z,8.05
2023-02-05T10:40:00.886Z,8.01
2023-02-05T10:42:41.162Z,7.82
2023-02-05T10:45:26.689Z,7.72
2023-02-05T10:48:29.997Z,7.63
2023-02-05T10:51:23.859Z,7.75
2023-02-05T10:53:50.323Z,7.89
2023-02-05T10:56:19.000Z,7.93
2023-02-05T10:58:52.523Z,7.90
2023-02-05T11:01:20.736Z,8.10
2023-02-05T11:04:03.207Z,8.05
2023-02-05T11:06:37.163Z,8.08
2023-02-05T11:09:23.802Z,8.12
2023-02-05T11:11:59.725Z,7.97
2023-02-05T11:14:38.658Z,7.89
2023-02-05T11:17:21.882Z,7.94
2023-02-05T11:19:56.999Z,8.07
2023-02-05T11:22:35.115Z,8.15
2023-02-05T11:25:19.302Z,8.25
2023-02-05T11:27:56.096Z,8.26
2023-02-05T11:30:50.343Z,8.23
2023-02-05T11:33:23.056Z,8.27
2023-02-05T11:36:15.274Z,8.41
2023-02-05T11:38:54.176Z,8.47
2023-02-05T11:41:51.631Z,8.43
2023-02-05T11:44:24.014Z,8.42
2023-02-05T11:46:56.676Z,8.47
2023-02-05T11:49:32.762Z,8.48
2023-02-05T11:52:00.035Z,8.39
2023-02-05T11:54:31.504Z,8.35
2023-02-05T11:57:05.736Z,8.30
2023-02-05T11:59:33.231Z,8.29
2023-02-05T12:02:31.149Z,8.34
2023-02-05T12:05:18.781Z,8.44
2023-02-05T12:08:03.997Z,8.48
2023-02-05T12:10:51.319Z,8.58
2023-02-05T12:13:27.704Z,8.66
2023-02-05T12:16:08.696Z,8.67
2023-02-05T12:18:55.441Z,8.49
2023-02-05T12:21:45.951Z,8.58
2023-02-05T12:24:47.497Z,8.60
2023-02-05T12:27:30.555Z,8.52
2023-02-05T12:30:32.472Z,8.37
2023-02-05T12:33:19.955Z,8.33
2023-02-05T12:36:24.611Z,8.37
2023-02-05T12:39:23.764Z,8.44
2023-02-05T12:42:14.922Z,8.60
2023-02-05T12:45:15.701Z,8.75
2023-02-05T12:48:25.914Z,8.60
2023-02-05T12:51:29.959Z,8.72
2023-02-05T12:54:14.550Z,8.63
2023-02-05T12:57:12.787Z,8.55
2023-02-05T13:00:00.452Z,8.49
2023-02-05T13:02:36.624Z,8.54
2023-02-05T13:05:17.411Z,8.55
2023-02-05T13:08:01.904Z,8.64
2023-02-05T13:10:39.981Z,8.65
2023-02-05T13:13:14.527Z,8.64
2023-02-05T13:15:44.366Z,8.69
2023-02-05T13:18:18.882Z,8.69
2023-02-05T13:21:14.976Z,8.73
2023-02-05T13:24:02.226Z,8.69
2023-02-05T13:26:53.103Z,8.66
2023-02-05T13:29:23.426Z,8.72
2023-02-05T13:32:14.762Z,8.73
2023-02-05T13:34:42.247Z,8.68
2023-02-05T13:37:22.535Z,8.69
2023-02-05T13:40:10.663Z,8.54
2023-02-05T13:42:40.084Z,8.54
2023-02-05T13:45:21.983Z,8.49
2023-02-05T13:47:54.199Z,8.42
2023-02-05T13:50:55.499Z,8.38
2023-02-05T13:53:42.903Z,8.32
2023-02-05T13:56:36.996Z,8.39
2023-02-05T13:59:27.926Z,8.44
2023-02-05T14:01:58.034Z,8.39
2023-02-05T14:04:42.191Z,8.35
2023-02-05T14:07:20.115Z,8.42
2023-02-05T14:09:56.422Z,8.51
2023-02-05T14:12:25.924Z,8.49
2023-02-05T14:15:17.492Z,8.50
2023-02-05T14:17:43.871Z,8.50
2023-02-05T14:20:25.265Z,8.47
2023-02-05T14:22:55.270Z,8.52
2023-02-05T14:25:41.592Z,8.62
2023-02-05T14:28:17.361Z,8.61
2023-02-05T14:31:04.283Z,8.53
2023-02-05T14:33:34.952Z,8.59
2023-02-05T14:36:25.433Z,8.56
2023-02-05T14:38:54.770Z,8.54
2023-02-05T14:41:24.840Z,8.52
2023-02-05T14:43:56.706Z,8.51
2023-02-05T14:46:40.759Z,8.47
2023-02-05T14:49:22.014Z,8.48
2023-02-05T14:51:59.198Z,8.47
2023-02-05T14:54:30.227Z,8.40
2023-02-05T14:57:14.895Z,8.27
2023-02-05T14:59:50.957Z,8.23
2023-02-05T15:02:55.237Z,8.16
2023-02-05T15:05:40.543Z,8.14
2023-02-05T15:08:34.528Z,8.09
2023-02-05T15:11:43.230Z,8.20
2023-02-05T15:14:21.629Z,8.13
2023-02-05T15:17:06.052Z,8.13
2023-02-05T15:19:40.034Z,8.09
2023-02-05T15:22:19.811Z,8.05
2023-02-05T15:24:49.048Z,8.12
2023-02-05T15:27:23.395Z,8.11
2023-02-05T15:29:57.607Z,8.10
2023-02-05T15:32:29.698Z,7.98
2023-02-05T15:35:11.501Z,7.98
2023-02-05T15:37:46.796Z,7.93
2023-02-05T15:40:19.169Z,7.86
2023-02-05T15:42:49.917Z,7.87
2023-02-05T15:45:27.130Z,7.84
2023-02-05T15:48:12.670Z,7.80
2023-02-05T15:50:59.848Z,7.85
2023-02-05T15:53:49.416Z,7.84
2023-02-05T15:56:31.809Z,7.85
2023-02-05T15:59:01.891Z,7.64
2023-02-05T16:01:32.090Z,7.69
2023-02-05T16:03:58.684Z,7.71
2023-02-05T16:06:27.445Z,7.66
2023-02-05T16:08:54.645Z,7.65
2023-02-05T16:11:33.440Z,7.67
2023-02-05T16:14:13.629Z,7.61
2023-02-05T16:17:02.872Z,7.57
2023-02-05T16:19:35.576Z,7.58
2023-02-05T16:22:23.969Z,7.51
2023-02-05T16:24:54.507Z,7.51
2023-02-05T16:27:26.787Z,7.48
2023-02-05T16:29:58.031Z,7.51
2023-02-05T16:32:36.910Z,7.50
2023-02-05T16:35:07.691Z,7.51
2023-02-05T16:37:35.571Z,7.53
2023-02-05T16:40:06.541Z,7.53
2023-02-05T16:42:38.122Z,7.54
2023-02-05T16:45:25.421Z,7.58
2023-02-05T16:48:26.224Z,7.56
2023-02-05T16:50:53.488Z,7.51
2023-02-05T16:53:26.692Z,7.52
2023-02-05T16:56:02.938Z,7.47
2023-02-05T16:58:38.086Z,7.42
2023-02-05T17:01:04.656Z,7.35
2023-02-05T17:03:38.011Z,7.51
2023-02-05T17:06:12.196Z,7.49
2023-02-05T17:08:39.841Z,7.43
2023-02-05T17:11:27.267Z,7.42
2023-02-05T17:14:31.048Z,7.33
2023-02-05T17:17:02.671Z,7.32
2023-02-05T17:19:32.757Z,7.34
2023-02-05T17:22:14.207Z,7.31
2023-02-05T17:24:42.172Z,7.28
2023-02-05T17:27:17.120Z,7.25
2023-02-05T17:29:44.483Z,7.14
2023-02-05T17:32:19.162Z,7.16
2023-02-05T17:34:46.217Z,7.13
2023-02-05T17:37:13.212Z,7.14
2023-02-05T17:39:40.864Z,7.15
2023-02-05T17:42:18.094Z,7.13
2023-02-05T17:44:44.519Z,7.12
2023-02-05T17:47:11.037Z,7.11
2023-02-05T17:49:37.472Z,7.09
2023-02-05T17:52:04.061Z,7.09
2023-02-05T17:54:30.959Z,7.06
2023-02-05T17:57:10.932Z,7.10
2023-02-05T17:59:37.378Z,7.10
2023-02-05T18:02:04.986Z,7.10
2023-02-05T18:04:31.541Z,7.10
2023-02-05T18:06:57.943Z,7.10
2023-02-05T18:09:24.326Z,7.08
2023-02-05T18:11:50.779Z,7.03
2023-02-05T18:14:17.245Z,7.04
2023-02-05T18:16:43.715Z,7.06
2023-02-05T18:19:10.158Z,7.07
2023-02-05T18:21:36.612Z,7.10
2023-02-05T18:24:03.900Z,7.09
2023-02-05T18:26:30.961Z,7.06
2023-02-05T18:28:57.419Z,7.00
2023-02-05T18:31:24.018Z,6.92
2023-02-05T18:33:52.609Z,6.95
2023-02-05T18:36:18.975Z,6.97
2023-02-05T18:38:45.384Z,6.95
2023-02-05T18:41:14.931Z,6.91
2023-02-05T18:43:41.892Z,6.86
2023-02-05T18:46:11.145Z,6.87
2023-02-05T18:48:38.090Z,6.89
2023-02-05T18:51:09.132Z,6.91
2023-02-05T18:53:38.902Z,6.83
2023-02-05T18:56:08.939Z,6.77
2023-02-05T18:58:36.177Z,6.78
2023-02-05T19:01:14.415Z,6.80
2023-02-05T19:03:42.245Z,6.74
2023-02-05T19:06:11.050Z,6.74
2023-02-05T19:08:38.830Z,6.74
2023-02-05T19:11:13.400Z,6.73
2023-02-05T19:13:40.633Z,6.74
2023-02-05T19:16:12.616Z,6.76
2023-02-05T19:18:40.474Z,6.71
2023-02-05T19:21:10.622Z,6.72
2023-02-05T19:23:38.067Z,6.67
2023-02-05T19:26:07.572Z,6.62
2023-02-05T19:28:34.778Z,6.59
2023-02-05T19:31:07.972Z,6.60
2023-02-05T19:33:35.804Z,6.59
2023-02-05T19:36:04.628Z,6.62
2023-02-05T19:38:31.442Z,6.64
2023-02-05T19:41:08.228Z,6.69
2023-02-05T19:43:34.743Z,6.66
2023-02-05T19:46:08.063Z,6.67
2023-02-05T19:48:35.323Z,6.55
2023-02-05T19:51:06.433Z,6.55
2023-02-05T19:53:33.932Z,6.46
2023-02-05T19:56:10.251Z,6.46
2023-02-05T19:58:40.329Z,6.54
2023-02-05T20:01:32.994Z,6.56
2023-02-05T20:04:06.681Z,6.54
2023-02-05T20:06:33.180Z,6.53
2023-02-05T20:09:00.976Z,6.47
2023-02-05T20:11:30.311Z,6.50
2023-02-05T20:14:00.919Z,6.54
2023-02-05T20:16:27.317Z,6.55
2023-02-05T20:18:56.606Z,6.55
2023-02-05T20:21:24.116Z,6.57
2023-02-05T20:23:51.054Z,6.55
2023-02-05T20:26:19.136Z,6.54
2023-02-05T20:29:06.239Z,6.51
2023-02-05T20:31:37.724Z,6.51
2023-02-05T20:34:07.121Z,6.48
2023-02-05T20:36:34.950Z,6.41
2023-02-05T20:39:03.893Z,6.38
2023-02-05T20:41:30.388Z,6.39
2023-02-05T20:43:57.516Z,6.38
2023-02-05T20:46:25.243Z,6.38
2023-02-05T20:48:52.087Z,6.42
2023-02-05T20:51:20.702Z,6.42
2023-02-05T20:53:48.294Z,6.43
2023-02-05T20:56:20.292Z,6.46
2023-02-05T20:58:47.241Z,6.46
2023-02-05T21:01:15.078Z,6.46
2023-02-05T21:03:47.179Z,6.47
2023-02-05T21:06:14.671Z,6.48
2023-02-05T21:08:43.439Z,6.48
2023-02-05T21:11:10.612Z,6.47
2023-02-05T21:13:37.331Z,6.47
2023-02-05T21:16:04.529Z,6.47
2023-02-05T21:18:31.768Z,6.48
2023-02-05T21:21:11.860Z,6.48
2023-02-05T21:23:53.626Z,6.47
2023-02-05T21:26:32.380Z,6.46
2023-02-05T21:29:01.406Z,6.45
2023-02-05T21:31:36.332Z,6.44
2023-02-05T21:34:04.423Z,6.41
2023-02-05T21:36:31.447Z,6.44
2023-02-05T21:38:58.149Z,6.44
2023-02-05T21:41:24.970Z,6.42
2023-02-05T21:43:53.751Z,6.42
2023-02-05T21:46:21.512Z,6.43
2023-02-05T21:48:50.152Z,6.42
2023-02-05T21:51:19.368Z,6.42
2023-02-05T21:53:46.377Z,6.40
2023-02-05T21:56:15.186Z,6.42
2023-02-05T21:58:41.976Z,6.43
2023-02-05T22:01:24.795Z,6.44
2023-02-05T22:03:54.138Z,6.42
2023-02-05T22:06:22.516Z,6.39
2023-02-05T22:08:50.855Z,6.37
2023-02-05T22:11:20.006Z,6.38
2023-02-05T22:13:48.726Z,6.40
2023-02-05T22:16:18.402Z,6.40
2023-02-05T22:18:45.186Z,6.37
2023-02-05T22:21:20.758Z,6.36
2023-02-05T22:23:49.765Z,6.33
2023-02-05T22:26:18.197Z,6.32
2023-02-05T22:28:45.224Z,6.36
2023-02-05T22:31:14.106Z,6.32
2023-02-05T22:33:42.174Z,6.35
2023-02-05T22:36:10.354Z,6.37
2023-02-05T22:38:39.454Z,6.39
2023-02-05T22:41:34.202Z,6.39
2023-02-05T22:44:01.905Z,6.37
2023-02-05T22:46:31.228Z,6.40
2023-02-05T22:48:59.507Z,6.42
2023-02-05T22:51:31.493Z,6.42
2023-02-05T22:53:58.719Z,6.43
2023-02-05T22:56:26.120Z,6.43
2023-02-05T22:58:53.341Z,6.44
2023-02-05T23:01:30.798Z,6.38
2023-02-05T23:03:57.450Z,6.32
2023-02-05T23:06:27.303Z,6.31
2023-02-05T23:08:59.359Z,6.33
2023-02-05T23:11:28.298Z,6.35
2023-02-05T23:13:56.518Z,6.36
2023-02-05T23:16:26.361Z,6.40
2023-02-05T23:18:55.769Z,6.41
2023-02-05T23:21:25.291Z,6.39
2023-02-05T23:23:51.893Z,6.38
2023-02-05T23:26:42.050Z,6.39
2023-02-05T23:29:10.485Z,6.40
2023-02-05T23:31:36.985Z,6.39
2023-02-05T23:34:03.443Z,6.36
2023-02-05T23:36:29.927Z,6.36
2023-02-05T23:38:56.326Z,6.35
2023-02-05T23:41:39.388Z,6.34
2023-02-05T23:44:19.372Z,6.32
2023-02-05T23:46:47.883Z,6.29
2023-02-05T23:49:15.574Z,6.27
2023-02-05T23:51:42.413Z,6.29
2023-02-05T23:54:10.505Z,6.32
2023-02-05T23:56:37.304Z,6.34
2023-02-05T23:59:05.126Z,6.36
